Time;durP1;ratioP1;P1;durP2;ratioP2;P2;SDS_P1;SDS_P2;PMS_P1;PMS_P2;Temp;Humidity;BMP_temperature;BMP_pressure;BME280_temperature;BME280_humidity;BME280_pressure;Samples;Min_cycle;Max_cycle;Signal;HPM_P1;HPM_P2
2023/12/03 00:01:44;;;;;;;9.73;6.03;;;;;;;-2.37;99.67;98552.81;5062721;28;20242;-79
2023/12/03 00:04:11;;;;;;;9.43;5.97;;;;;;;-2.37;98.68;98547.66;5063268;28;20607;-79
2023/12/03 00:06:38;;;;;;;9.67;5.70;;;;;;;-2.39;98.84;98555.44;5063543;28;20298;-79
2023/12/03 00:09:04;;;;;;;7.73;5.20;;;;;;;-2.32;99.26;98556.22;5064516;28;20210;-79
2023/12/03 00:11:31;;;;;;;9.70;5.47;;;;;;;-2.34;100.00;98568.34;5063529;28;20230;-81
2023/12/03 00:13:57;;;;;;;9.20;6.37;;;;;;;-2.34;100.00;98564.00;5063257;28;20221;-79
2023/12/03 00:16:25;;;;;;;9.83;5.77;;;;;;;-2.33;100.00;98575.22;5062510;28;20569;-78
2023/12/03 00:18:52;;;;;;;9.77;5.87;;;;;;;-2.29;100.00;98572.56;5062278;28;20310;-79
2023/12/03 00:21:18;;;;;;;7.13;5.10;;;;;;;-2.34;100.00;98569.19;5062573;28;20242;-80
2023/12/03 00:23:45;;;;;;;8.17;5.73;;;;;;;-2.27;100.00;98568.22;5062652;28;20245;-80
2023/12/03 00:26:11;;;;;;;8.57;5.33;;;;;;;-2.37;100.00;98569.22;5059201;28;20240;-80
2023/12/03 00:28:38;;;;;;;8.97;5.97;;;;;;;-2.37;100.00;98558.00;5057671;28;20217;-79
2023/12/03 00:31:05;;;;;;;68.67;27.37;;;;;;;-2.35;100.00;98558.84;5063532;28;20247;-80
2023/12/03 00:33:33;;;;;;;23.80;11.27;;;;;;;-2.35;100.00;98562.28;5062748;28;20567;-79
2023/12/03 00:35:59;;;;;;;12.43;8.10;;;;;;;-2.37;100.00;98569.22;5061612;28;20300;-79
2023/12/03 00:38:26;;;;;;;13.00;7.73;;;;;;;-2.39;100.00;98568.38;5063835;28;20218;-78
2023/12/03 00:40:52;;;;;;;12.13;7.87;;;;;;;-2.33;100.00;98581.22;5061896;28;20210;-81
2023/12/03 00:43:19;;;;;;;9.87;5.73;;;;;;;-2.30;100.00;98585.53;5062816;28;20277;-80
2023/12/03 00:45:45;;;;;;;10.53;6.43;;;;;;;-2.30;100.00;98583.81;5062232;28;20219;-79
2023/12/03 00:48:12;;;;;;;12.57;6.80;;;;;;;-2.32;100.00;98589.88;5062259;28;20221;-78
2023/12/03 00:50:40;;;;;;;11.70;7.07;;;;;;;-2.33;100.00;98590.75;5062617;28;20207;-79
2023/12/03 00:53:06;;;;;;;9.17;5.80;;;;;;;-2.28;100.00;98591.56;5061336;28;20222;-79
2023/12/03 00:55:33;;;;;;;12.50;7.43;;;;;;;-2.27;100.00;98595.84;5059491;28;20676;-79
2023/12/03 00:57:59;;;;;;;15.37;8.17;;;;;;;-2.34;100.00;98583.88;5060640;28;20206;-78
2023/12/03 01:00:26;;;;;;;9.43;5.87;;;;;;;-2.36;100.00;98590.78;5060975;28;20221;-81
2023/12/03 01:02:52;;;;;;;10.83;5.90;;;;;;;-2.38;99.68;98587.34;5060243;28;20229;-80
2023/12/03 01:05:19;;;;;;;10.80;6.60;;;;;;;-2.45;99.85;98593.47;5061105;28;20606;-80
2023/12/03 01:07:47;;;;;;;18.77;10.40;;;;;;;-2.36;100.00;98590.78;5063398;28;20253;-82
2023/12/03 01:10:13;;;;;;;10.10;7.07;;;;;;;-2.31;100.00;98600.22;5062867;28;20221;-79
2023/12/03 01:12:40;;;;;;;12.73;8.00;;;;;;;-2.32;100.00;98597.63;5062205;28;20230;-79
2023/12/03 01:15:07;;;;;;;12.13;7.33;;;;;;;-2.33;100.00;98611.47;5062948;28;20209;-79
2023/12/03 01:17:34;;;;;;;12.10;7.00;;;;;;;-2.32;100.00;98613.16;5063265;28;20210;-80
2023/12/03 01:20:00;;;;;;;12.87;7.43;;;;;;;-2.27;100.00;98621.75;5063716;28;20704;-79
2023/12/03 01:22:27;;;;;;;11.63;7.07;;;;;;;-2.30;100.00;98622.63;5063330;28;20237;-79
2023/12/03 01:24:54;;;;;;;12.57;7.83;;;;;;;-2.28;100.00;98627.81;5063995;28;20211;-79
2023/12/03 01:27:21;;;;;;;10.23;6.83;;;;;;;-2.32;100.00;98633.88;5064145;28;20205;-81
2023/12/03 01:29:47;;;;;;;12.07;7.87;;;;;;;-2.28;100.00;98641.59;5064705;28;20218;-81
2023/12/03 01:32:14;;;;;;;10.00;6.63;;;;;;;-2.34;100.00;98638.22;5063982;28;20590;-80
2023/12/03 01:34:40;;;;;;;12.77;6.80;;;;;;;-2.35;100.00;98639.94;5062766;28;20211;-81
2023/12/03 01:37:07;;;;;;;13.27;7.47;;;;;;;-2.28;100.00;98645.91;5062517;28;20209;-81
2023/12/03 01:39:33;;;;;;;10.97;6.80;;;;;;;-2.28;100.00;98643.34;5062943;28;20216;-80
2023/12/03 01:42:01;;;;;;;11.23;6.47;;;;;;;-2.22;100.00;98645.81;5062644;28;20671;-79
2023/12/03 01:44:28;;;;;;;11.43;7.07;;;;;;;-2.29;100.00;98654.53;5062686;28;20218;-80
2023/12/03 01:46:54;;;;;;;9.93;6.33;;;;;;;-2.27;100.00;98647.63;5063179;28;20671;-79
2023/12/03 01:49:21;;;;;;;10.10;7.20;;;;;;;-2.22;100.00;98656.19;5063567;28;20209;-81
2023/12/03 01:51:48;;;;;;;10.83;6.73;;;;;;;-2.27;100.00;98652.81;5063287;28;20227;-80
2023/12/03 01:54:15;;;;;;;12.43;7.10;;;;;;;-2.27;100.00;98660.56;5062837;28;20300;-80
2023/12/03 01:56:41;;;;;;;8.80;5.90;;;;;;;-2.26;100.00;98659.69;5063392;28;20548;-80
2023/12/03 01:59:10;;;;;;;12.40;7.10;;;;;;;-2.25;100.00;98664.88;5063356;28;20221;-80
2023/12/03 02:01:37;;;;;;;10.17;6.43;;;;;;;-2.28;100.00;98664.88;5063294;28;20237;-80
2023/12/03 02:04:03;;;;;;;13.40;8.13;;;;;;;-2.28;100.00;98667.47;5062412;28;20240;-80
2023/12/03 02:06:30;;;;;;;12.43;7.10;;;;;;;-2.22;100.00;98676.88;5062950;28;20217;-80
2023/12/03 02:08:56;;;;;;;13.50;7.97;;;;;;;-2.20;100.00;98675.16;5063412;28;20214;-80
2023/12/03 02:11:23;;;;;;;11.30;6.40;;;;;;;-2.17;100.00;98670.81;5062104;28;20233;-80
2023/12/03 02:13:50;;;;;;;11.10;6.70;;;;;;;-2.27;100.00;98666.59;5066095;28;20212;-80
2023/12/03 02:16:19;;;;;;;11.20;7.27;;;;;;;-2.25;100.00;98666.59;5067442;28;20210;-80
2023/12/03 02:18:45;;;;;;;9.87;6.57;;;;;;;-2.18;100.00;98673.41;5068203;28;20210;-80
2023/12/03 02:21:11;;;;;;;11.80;7.53;;;;;;;-2.21;100.00;98668.28;5068495;28;20245;-80
2023/12/03 02:23:39;;;;;;;11.50;7.13;;;;;;;-2.20;100.00;98665.66;5067945;28;20230;-80
2023/12/03 02:26:07;;;;;;;11.67;7.43;;;;;;;-2.19;100.00;98667.38;5068523;28;20214;-80
2023/12/03 02:28:33;;;;;;;10.77;7.13;;;;;;;-2.20;100.00;98664.81;5068307;28;20660;-80
2023/12/03 02:31:00;;;;;;;12.70;6.80;;;;;;;-2.25;100.00;98671.75;5067688;28;20585;-80
2023/12/03 02:33:27;;;;;;;14.57;6.77;;;;;;;-2.21;100.00;98663.94;5068700;28;20212;-80
2023/12/03 02:35:53;;;;;;;10.17;6.20;;;;;;;-2.25;100.00;98671.75;5068063;28;20251;-80
2023/12/03 02:38:20;;;;;;;11.33;6.70;;;;;;;-2.25;100.00;98676.94;5068564;28;20209;-80
2023/12/03 02:40:48;;;;;;;14.13;7.33;;;;;;;-2.28;100.00;98676.97;5068380;28;20222;-80
2023/12/03 02:43:14;;;;;;;13.93;7.47;;;;;;;-2.29;100.00;98670.94;5068054;28;20753;-82
2023/12/03 02:45:41;;;;;;;13.07;6.93;;;;;;;-2.28;100.00;98671.81;5068327;28;20221;-79
2023/12/03 02:48:07;;;;;;;10.73;6.50;;;;;;;-2.30;100.00;98678.72;5067893;28;20207;-81
2023/12/03 02:50:34;;;;;;;12.13;6.90;;;;;;;-2.35;100.00;98676.16;5067956;28;20211;-81
2023/12/03 02:53:01;;;;;;;11.93;6.53;;;;;;;-2.29;100.00;98683.00;5069148;28;20226;-81
2023/12/03 02:55:28;;;;;;;12.70;6.90;;;;;;;-2.28;100.00;98682.16;5068452;28;20205;-80
2023/12/03 02:57:56;;;;;;;9.83;6.40;;;;;;;-2.28;100.00;98689.94;5068971;28;20215;-81
2023/12/03 03:00:22;;;;;;;11.80;7.33;;;;;;;-2.26;100.00;98691.59;5068475;28;20210;-80
2023/12/03 03:02:49;;;;;;;12.60;6.73;;;;;;;-2.24;100.00;98692.47;5067391;28;20241;-80
2023/12/03 03:05:15;;;;;;;12.37;6.93;;;;;;;-2.25;100.00;98684.69;5069151;28;20206;-80
2023/12/03 03:07:42;;;;;;;12.97;6.63;;;;;;;-2.26;100.00;98691.59;5069253;28;20282;-80
2023/12/03 03:10:09;;;;;;;10.53;6.13;;;;;;;-2.27;100.00;98689.06;5068648;28;20210;-81
2023/12/03 03:12:35;;;;;;;9.40;6.10;;;;;;;-2.26;100.00;98686.41;5068838;28;20223;-82
2023/12/03 03:15:04;;;;;;;11.23;6.33;;;;;;;-2.29;100.00;98685.59;5068894;28;20210;-81
2023/12/03 03:17:30;;;;;;;9.80;5.80;;;;;;;-2.34;100.00;98684.81;5069314;28;20210;-80
2023/12/03 03:19:57;;;;;;;10.30;6.47;;;;;;;-2.32;100.00;98685.66;5068045;28;20598;-81
2023/12/03 03:22:23;;;;;;;10.47;6.73;;;;;;;-2.31;100.00;98682.19;5067558;28;20244;-81
2023/12/03 03:24:51;;;;;;;14.97;7.67;;;;;;;-2.20;100.00;98690.69;5066253;28;20211;-81
2023/12/03 03:27:18;;;;;;;10.43;6.93;;;;;;;-2.29;100.00;98691.66;5068096;28;20214;-81
2023/12/03 03:29:44;;;;;;;11.60;6.87;;;;;;;-2.25;100.00;98687.28;5067686;28;20223;-81
2023/12/03 03:32:12;;;;;;;12.73;6.43;;;;;;;-2.33;100.00;98689.09;5068241;28;20644;-78
2023/12/03 03:34:39;;;;;;;12.30;6.70;;;;;;;-2.27;100.00;98695.06;5067701;28;20210;-80
2023/12/03 03:37:06;;;;;;;9.27;6.20;;;;;;;-2.31;100.00;98688.22;5069195;28;20229;-80
2023/12/03 03:39:32;;;;;;;12.10;6.90;;;;;;;-2.33;100.00;98704.63;5069614;28;20246;-80
2023/12/03 03:41:59;;;;;;;11.17;6.63;;;;;;;-2.34;100.00;98715.88;5068907;28;20261;-79
2023/12/03 03:44:25;;;;;;;13.43;7.13;;;;;;;-2.32;100.00;98702.00;5068702;28;20218;-80
2023/12/03 03:46:52;;;;;;;12.47;6.97;;;;;;;-2.33;100.00;98704.63;5069106;28;20220;-82
2023/12/03 03:49:20;;;;;;;11.47;6.70;;;;;;;-2.36;100.00;98705.53;5072397;28;20220;-80
2023/12/03 03:51:47;;;;;;;10.70;6.07;;;;;;;-2.42;100.00;98705.56;5075531;28;20227;-81
2023/12/03 03:54:13;;;;;;;9.57;6.20;;;;;;;-2.39;100.00;98707.28;5073998;28;20225;-79
2023/12/03 03:56:40;;;;;;;9.00;5.20;;;;;;;-2.40;100.00;98703.81;5072727;28;20216;-81
2023/12/03 03:59:06;;;;;;;12.03;6.47;;;;;;;-2.35;100.00;98711.53;5062121;28;20210;-81
2023/12/03 04:01:33;;;;;;;9.37;6.17;;;;;;;-2.38;100.00;98709.84;5061044;28;20234;-81
2023/12/03 04:03:59;;;;;;;12.13;6.50;;;;;;;-2.34;100.00;98708.09;5060463;28;20229;-81
2023/12/03 04:06:27;;;;;;;9.40;6.13;;;;;;;-2.35;100.00;98711.53;5061525;28;20219;-80
2023/12/03 04:08:53;;;;;;;9.57;6.27;;;;;;;-2.36;100.00;98712.41;5061607;28;20224;-80
2023/12/03 04:11:20;;;;;;;10.87;6.30;;;;;;;-2.43;100.00;98708.19;5061007;28;20234;-79
2023/12/03 04:13:46;;;;;;;8.20;5.97;;;;;;;-2.49;100.00;98708.22;5061540;28;20202;-81
2023/12/03 04:16:21;;;;;;;9.83;5.80;;;;;;;-2.48;100.00;98708.22;5060991;28;20212;-79
2023/12/03 04:18:48;;;;;;;11.47;7.07;;;;;;;-2.54;100.00;98704.81;5061838;28;20195;-82
2023/12/03 04:21:15;;;;;;;10.30;6.20;;;;;;;-2.65;100.00;98704.91;5060726;28;20232;-79
2023/12/03 04:23:43;;;;;;;10.40;6.33;;;;;;;-2.64;100.00;98706.63;5061524;28;20261;-81
2023/12/03 04:26:09;;;;;;;9.90;5.80;;;;;;;-2.67;100.00;98708.38;5060780;28;20673;-81
2023/12/03 04:28:36;;;;;;;10.30;6.20;;;;;;;-2.66;100.00;98710.97;5060559;28;20210;-81
2023/12/03 04:31:02;;;;;;;10.37;6.13;;;;;;;-2.70;100.00;98713.59;5061176;28;20245;-79
2023/12/03 04:33:28;;;;;;;10.60;5.90;;;;;;;-2.68;100.00;98717.03;5060655;28;20674;-79
2023/12/03 04:35:55;;;;;;;8.90;5.73;;;;;;;-2.74;100.00;98717.94;5060173;28;20276;-79
2023/12/03 04:38:21;;;;;;;8.83;5.67;;;;;;;-2.76;100.00;98722.25;5060941;28;20221;-79
2023/12/03 04:40:49;;;;;;;10.23;6.30;;;;;;;-2.75;100.00;98717.94;5061246;28;20209;-81
2023/12/03 04:43:16;;;;;;;9.13;5.87;;;;;;;-2.76;100.00;98724.81;5060963;28;20234;-81
2023/12/03 04:45:42;;;;;;;10.87;6.67;;;;;;;-2.72;100.00;98720.50;5060954;28;20209;-80
2023/12/03 04:48:08;;;;;;;10.50;6.23;;;;;;;-2.80;100.00;98717.13;5060426;28;20206;-81
2023/12/03 04:50:35;;;;;;;7.73;5.20;;;;;;;-2.78;100.00;98723.13;5061356;28;20231;-80
2023/12/03 04:53:01;;;;;;;6.83;4.97;;;;;;;-2.85;100.00;98730.09;5061545;28;20231;-81
2023/12/03 04:55:28;;;;;;;10.30;5.33;;;;;;;-2.89;100.00;98737.88;5062000;28;20222;-79
2023/12/03 04:57:56;;;;;;;10.17;5.80;;;;;;;-2.91;100.00;98730.13;5062950;28;20650;-79
2023/12/03 05:00:22;;;;;;;10.63;5.73;;;;;;;-2.93;100.00;98725.84;5062453;28;20238;-79
2023/12/03 05:02:49;;;;;;;10.73;6.53;;;;;;;-3.00;100.00;98731.91;5061878;28;20234;-82
2023/12/03 05:05:15;;;;;;;12.00;6.90;;;;;;;-3.05;100.00;98741.44;5062488;28;20312;-81
2023/12/03 05:07:42;;;;;;;9.23;5.13;;;;;;;-3.17;100.00;98732.00;5062089;28;20219;-81
2023/12/03 05:10:08;;;;;;;9.30;6.33;;;;;;;-3.19;100.00;98746.66;5063517;28;20348;-81
2023/12/03 05:12:35;;;;;;;9.93;5.77;;;;;;;-3.31;100.00;98751.91;5063988;28;20669;-81
2023/12/03 05:15:03;;;;;;;9.30;6.07;;;;;;;-3.45;100.00;98758.00;5063169;28;20220;-81
2023/12/03 05:17:30;;;;;;;11.00;5.87;;;;;;;-3.52;100.00;98762.34;5063920;28;20218;-81
2023/12/03 05:19:56;;;;;;;10.83;5.87;;;;;;;-3.64;100.00;98753.78;5063398;28;20219;-80
2023/12/03 05:22:23;;;;;;;9.97;5.90;;;;;;;-3.70;100.00;98759.84;5061419;28;20235;-81
2023/12/03 05:24:50;;;;;;;11.10;6.43;;;;;;;-3.78;100.00;98764.13;5059786;28;20216;-80
2023/12/03 05:27:16;;;;;;;12.80;6.53;;;;;;;-3.86;100.00;98762.47;5059857;28;20213;-79
2023/12/03 05:29:43;;;;;;;10.73;6.20;;;;;;;-3.94;100.00;98766.78;5060970;28;20291;-80
2023/12/03 05:32:11;;;;;;;10.67;6.33;;;;;;;-3.96;100.00;98773.69;5060615;28;20282;-79
2023/12/03 05:34:38;;;;;;;10.20;6.07;;;;;;;-4.00;100.00;98771.94;5060649;28;20211;-80
2023/12/03 05:37:04;;;;;;;10.37;6.53;;;;;;;-4.12;100.00;98771.97;5061314;28;20225;-80
2023/12/03 05:39:31;;;;;;;11.03;6.37;;;;;;;-4.17;100.00;98777.16;5061187;28;20220;-80
2023/12/03 05:41:57;;;;;;;9.53;6.07;;;;;;;-4.20;100.00;98778.88;5060182;28;20228;-79
2023/12/03 05:44:24;;;;;;;10.50;6.67;;;;;;;-4.28;100.00;98772.88;5060577;28;20247;-80
2023/12/03 05:46:50;;;;;;;10.63;6.17;;;;;;;-4.31;100.00;98783.19;5060245;28;20204;-82
2023/12/03 05:49:18;;;;;;;10.83;6.37;;;;;;;-4.34;100.00;98788.38;5060358;28;20211;-80
2023/12/03 05:51:45;;;;;;;12.10;7.00;;;;;;;-4.40;100.00;98788.38;5060503;28;20233;-80
2023/12/03 05:54:11;;;;;;;12.63;6.40;;;;;;;-4.43;100.00;98793.50;5060118;28;20222;-80
2023/12/03 05:56:38;;;;;;;11.30;7.23;;;;;;;-4.42;100.00;98793.50;5060199;28;20695;-80
2023/12/03 05:59:04;;;;;;;10.60;6.07;;;;;;;-4.48;100.00;98796.09;5061009;28;20232;-80
2023/12/03 06:01:31;;;;;;;11.27;6.87;;;;;;;-4.51;100.00;98808.13;5060210;28;20228;-80
2023/12/03 06:03:57;;;;;;;10.83;6.30;;;;;;;-4.58;100.00;98796.09;5060636;28;20231;-80
2023/12/03 06:06:25;;;;;;;10.00;5.83;;;;;;;-4.63;100.00;98788.38;5061440;28;20210;-80
2023/12/03 06:08:51;;;;;;;9.87;5.87;;;;;;;-4.69;100.00;98795.22;5061236;28;20674;-80
2023/12/03 06:11:18;;;;;;;12.80;6.73;;;;;;;-4.72;100.00;98795.19;5061085;28;20237;-80
2023/12/03 06:13:44;;;;;;;11.10;6.70;;;;;;;-4.66;100.00;98797.78;5060563;28;20211;-80
2023/12/03 06:16:11;;;;;;;10.67;6.67;;;;;;;-4.69;100.00;98795.22;5059516;28;20210;-81
2023/12/03 06:18:38;;;;;;;11.67;6.90;;;;;;;-4.66;100.00;98795.22;5059396;28;20217;-79
2023/12/03 06:21:05;;;;;;;10.33;5.93;;;;;;;-4.73;100.00;98798.66;5059663;28;20229;-80
2023/12/03 06:23:32;;;;;;;11.33;7.07;;;;;;;-4.65;100.00;98802.97;5059146;28;20239;-79
2023/12/03 06:26:00;;;;;;;10.53;6.90;;;;;;;-4.76;100.00;98799.50;5059577;28;20204;-79
2023/12/03 06:28:26;;;;;;;10.07;6.30;;;;;;;-4.77;100.00;98808.09;5059720;28;20207;-80
2023/12/03 06:30:53;;;;;;;13.97;7.47;;;;;;;-4.82;100.00;98821.84;5059999;28;20208;-80
2023/12/03 06:33:20;;;;;;;11.27;6.53;;;;;;;-4.85;100.00;98812.38;5060278;28;20299;-79
2023/12/03 06:35:47;;;;;;;10.73;6.60;;;;;;;-4.88;100.00;98816.69;5060183;28;20679;-80
2023/12/03 06:38:13;;;;;;;11.77;6.77;;;;;;;-4.89;100.00;98817.53;5061063;28;20204;-80
2023/12/03 06:40:42;;;;;;;13.20;7.37;;;;;;;-4.88;100.00;98822.69;5060499;28;20280;-80
2023/12/03 06:43:08;;;;;;;15.50;7.33;;;;;;;-4.90;100.00;98811.50;5059836;28;20326;-80
2023/12/03 06:45:35;;;;;;;13.00;6.90;;;;;;;-4.86;100.00;98817.53;5059830;28;20209;-80
2023/12/03 06:48:02;;;;;;;15.33;7.10;;;;;;;-4.90;100.00;98820.97;5060139;28;20673;-80
2023/12/03 06:50:29;;;;;;;12.40;7.47;;;;;;;-4.88;100.00;98824.41;5058509;28;20212;-80
2023/12/03 06:52:55;;;;;;;12.17;6.97;;;;;;;-4.89;100.00;98818.38;5059865;28;20243;-80
2023/12/03 06:55:22;;;;;;;10.80;6.30;;;;;;;-4.89;100.00;98817.53;5059201;28;20215;-80
2023/12/03 06:57:51;;;;;;;11.77;6.83;;;;;;;-4.86;100.00;98827.84;5060190;28;20216;-79
2023/12/03 07:00:18;;;;;;;13.70;7.17;;;;;;;-4.88;100.00;98827.00;5063589;28;20235;-80
2023/12/03 07:02:45;;;;;;;12.20;7.63;;;;;;;-4.83;100.00;98827.88;5062857;28;20228;-80
2023/12/03 07:05:11;;;;;;;11.67;7.27;;;;;;;-4.91;100.00;98835.56;5062283;28;20241;-80
2023/12/03 07:07:38;;;;;;;11.73;7.17;;;;;;;-4.86;100.00;98838.16;5063605;28;20226;-80
2023/12/03 07:10:05;;;;;;;12.03;7.60;;;;;;;-4.97;100.00;98834.69;5062142;28;20231;-79
2023/12/03 07:12:32;;;;;;;12.03;6.70;;;;;;;-4.99;100.00;98836.41;5063083;28;20238;-80
2023/12/03 07:15:00;;;;;;;12.93;7.60;;;;;;;-4.98;100.00;98838.13;5063421;28;20214;-80
2023/12/03 07:17:26;;;;;;;13.23;7.97;;;;;;;-4.99;100.00;98849.28;5060861;28;20209;-81
2023/12/03 07:19:53;;;;;;;11.83;7.23;;;;;;;-4.98;100.00;98848.44;5060464;28;20213;-79
2023/12/03 07:22:19;;;;;;;14.43;7.30;;;;;;;-4.95;100.00;98848.47;5060417;28;20236;-78
2023/12/03 07:24:46;;;;;;;11.93;7.20;;;;;;;-4.99;100.00;98859.59;5056416;28;20240;-79
2023/12/03 07:27:12;;;;;;;15.10;7.70;;;;;;;-4.99;100.00;98857.03;5061128;28;20213;-79
2023/12/03 07:29:39;;;;;;;12.80;7.03;;;;;;;-4.93;100.00;98862.19;5060562;28;20299;-78
2023/12/03 07:32:07;;;;;;;13.73;7.27;;;;;;;-4.93;100.00;98852.75;5059182;28;20320;-79
2023/12/03 07:34:33;;;;;;;12.10;7.23;;;;;;;-4.86;100.00;98851.91;5061691;28;20205;-78
2023/12/03 07:37:00;;;;;;;16.43;8.13;;;;;;;-4.78;100.00;98854.50;5059513;28;20208;-78
2023/12/03 07:39:26;;;;;;;12.53;7.03;;;;;;;-4.69;100.00;98857.09;5059294;28;20208;-79
2023/12/03 07:41:54;;;;;;;13.43;6.87;;;;;;;-4.62;100.00;98858.84;5059459;28;20235;-79
2023/12/03 07:44:21;;;;;;;13.23;7.23;;;;;;;-4.67;100.00;98863.13;5056495;28;20232;-79
2023/12/03 07:46:47;;;;;;;11.50;6.53;;;;;;;-4.70;100.00;98866.56;5040120;28;20205;-79
2023/12/03 07:49:16;;;;;;;10.60;6.80;;;;;;;-4.74;100.00;98869.13;5042252;28;20209;-79
2023/12/03 07:51:42;;;;;;;11.97;7.13;;;;;;;-4.73;100.00;98870.84;5042031;28;20234;-79
2023/12/03 07:54:09;;;;;;;15.37;8.10;;;;;;;-4.73;100.00;98866.56;5041000;28;20308;-79
2023/12/03 07:56:36;;;;;;;12.40;7.47;;;;;;;-4.72;100.00;98877.72;5036442;28;20443;-79
2023/12/03 07:59:02;;;;;;;13.20;7.63;;;;;;;-4.71;100.00;98882.03;5034674;28;20668;-78
2023/12/03 08:01:29;;;;;;;15.23;8.40;;;;;;;-4.66;100.00;98876.03;5035468;28;20241;-78
2023/12/03 08:03:55;;;;;;;15.27;8.73;;;;;;;-4.68;100.00;98874.28;5035909;28;20240;-78
2023/12/03 08:06:23;;;;;;;13.10;8.10;;;;;;;-4.62;100.00;98885.50;5037485;28;20593;-78
2023/12/03 08:08:50;;;;;;;14.73;7.47;;;;;;;-4.64;100.00;98881.19;5036756;28;20213;-78
2023/12/03 08:11:17;;;;;;;12.73;7.40;;;;;;;-4.57;100.00;98888.06;5040112;28;20259;-79
2023/12/03 08:13:43;;;;;;;14.90;8.53;;;;;;;-4.54;100.00;98877.75;5038750;28;20436;-78
2023/12/03 08:16:10;;;;;;;16.10;8.80;;;;;;;-4.49;100.00;98882.06;5040178;28;20209;-78
2023/12/03 08:18:36;;;;;;;15.70;7.97;;;;;;;-4.49;100.00;98886.38;5050195;28;20208;-78
2023/12/03 08:21:04;;;;;;;16.87;9.40;;;;;;;-4.43;100.00;98889.81;5049105;28;20239;-78
2023/12/03 08:23:32;;;;;;;16.97;8.73;;;;;;;-4.39;100.00;98890.69;5036729;28;20407;-77
2023/12/03 08:25:59;;;;;;;13.53;7.43;;;;;;;-4.41;100.00;98895.00;5049018;28;20670;-77
2023/12/03 08:28:25;;;;;;;15.90;8.50;;;;;;;-4.30;100.00;98888.09;5052815;28;20208;-77
2023/12/03 08:30:52;;;;;;;15.70;8.43;;;;;;;-4.21;100.00;98888.97;5052820;28;20208;-79
2023/12/03 08:33:19;;;;;;;14.33;7.77;;;;;;;-4.18;100.00;98889.00;5046916;28;20209;-77
2023/12/03 08:35:46;;;;;;;16.43;8.57;;;;;;;-4.10;100.00;98889.00;5053370;28;20585;-79
2023/12/03 08:38:13;;;;;;;14.73;7.57;;;;;;;-4.03;100.00;98888.13;5059807;28;20210;-79
2023/12/03 08:40:40;;;;;;;13.47;8.47;;;;;;;-3.99;100.00;98887.25;5055372;28;20219;-78
2023/12/03 08:43:07;;;;;;;16.20;8.23;;;;;;;-3.92;100.00;98883.84;5050233;28;20228;-77
2023/12/03 08:45:34;;;;;;;16.60;8.70;;;;;;;-3.90;100.00;98889.84;5038261;28;20235;-79
2023/12/03 08:48:01;;;;;;;15.83;8.60;;;;;;;-3.81;100.00;98900.16;5048679;28;20218;-79
2023/12/03 08:50:29;;;;;;;13.83;8.13;;;;;;;-3.80;100.00;98894.16;5051907;28;20216;-79
2023/12/03 08:52:56;;;;;;;16.17;9.27;;;;;;;-3.73;100.00;98898.44;5038903;28;20225;-79
2023/12/03 08:55:23;;;;;;;18.47;8.97;;;;;;;-3.71;100.00;98900.16;5049660;28;20204;-78
2023/12/03 08:57:51;;;;;;;15.57;8.33;;;;;;;-3.62;100.00;98896.72;5050245;28;20221;-80
2023/12/03 09:00:18;;;;;;;15.53;8.57;;;;;;;-3.56;100.00;98891.53;5051013;28;20683;-79
2023/12/03 09:02:45;;;;;;;14.23;8.73;;;;;;;-3.48;100.00;98900.13;5051993;28;20236;-79
2023/12/03 09:05:20;;;;;;;15.97;9.00;;;;;;;-3.47;100.00;98902.72;5051339;28;20295;-79
2023/12/03 09:07:46;;;;;;;16.07;8.90;;;;;;;-3.44;100.00;98907.84;5035803;28;20292;-79
2023/12/03 09:10:13;;;;;;;15.83;9.17;;;;;;;-3.40;100.00;98903.53;5038465;28;20210;-79
2023/12/03 09:12:42;;;;;;;17.10;8.97;;;;;;;-3.34;100.00;98904.41;5033084;28;20588;-78
2023/12/03 09:15:10;;;;;;;17.03;9.13;;;;;;;-3.24;100.00;98900.06;5033149;28;20620;-79
2023/12/03 09:17:37;;;;;;;17.70;9.57;;;;;;;-3.21;100.00;98905.22;5034356;28;20211;-79
2023/12/03 09:20:05;;;;;;;17.20;9.50;;;;;;;-3.22;100.00;98893.16;5033996;28;20214;-80
2023/12/03 09:22:31;;;;;;;16.53;9.37;;;;;;;-3.20;100.00;98896.59;5033299;28;20316;-79
2023/12/03 09:24:59;;;;;;;20.15;10.93;;;;;;;-3.07;100.00;98887.94;5032730;28;20453;-80
2023/12/03 09:27:25;;;;;;;15.77;9.80;;;;;;;-3.09;100.00;98889.66;5033377;28;20310;-80
2023/12/03 09:29:52;;;;;;;17.27;9.30;;;;;;;-3.06;100.00;98876.75;5032110;28;20535;-78
2023/12/03 09:32:19;;;;;;;15.70;9.40;;;;;;;-2.90;100.00;98873.19;5029732;28;20469;-80
2023/12/03 09:34:46;;;;;;;17.07;9.40;;;;;;;-2.79;100.00;98874.00;5033734;28;20217;-78
2023/12/03 09:37:12;;;;;;;16.67;9.27;;;;;;;-2.84;100.00;98873.16;5035065;28;20217;-78
2023/12/03 09:39:39;;;;;;;15.70;9.23;;;;;;;-2.86;100.00;98874.91;5047296;28;20210;-78
2023/12/03 09:42:08;;;;;;;19.20;9.67;;;;;;;-2.84;100.00;98876.63;5040720;28;20240;-78
2023/12/03 09:44:41;;;;;;;16.60;9.43;;;;;;;-2.75;100.00;98878.31;5044386;28;20260;-78
2023/12/03 09:47:08;;;;;;;13.87;8.17;;;;;;;-2.73;100.00;98879.16;5040570;28;20198;-78
2023/12/03 09:49:38;;;;;;;14.73;8.93;;;;;;;-2.73;100.00;98873.97;5053905;28;20212;-78
2023/12/03 09:52:08;;;;;;;15.53;9.07;;;;;;;-2.72;100.00;98879.16;5055185;28;20234;-78
2023/12/03 09:54:37;;;;;;;17.33;9.13;;;;;;;-2.66;100.00;98876.53;5043267;28;20281;-78
2023/12/03 09:57:06;;;;;;;18.90;9.23;;;;;;;-2.64;100.00;98881.72;5042047;28;20259;-78
2023/12/03 09:59:35;;;;;;;17.47;9.33;;;;;;;-2.57;100.00;98878.22;5040172;28;20270;-79
2023/12/03 10:02:03;;;;;;;16.20;10.20;;;;;;;-2.62;100.00;98877.38;5024899;28;20299;-79
2023/12/03 10:04:29;;;;;;;16.63;8.87;;;;;;;-2.61;100.00;98874.78;5033705;28;20242;-79
2023/12/03 10:06:59;;;;;;;13.70;8.03;;;;;;;-2.63;100.00;98875.66;5037406;28;20302;-79
2023/12/03 10:09:27;;;;;;;16.67;9.20;;;;;;;-2.61;100.00;98877.38;5038095;28;20211;-79
2023/12/03 10:11:56;;;;;;;14.53;8.67;;;;;;;-2.51;100.00;98876.44;5037682;28;20657;-79
2023/12/03 10:14:23;;;;;;;16.77;9.30;;;;;;;-2.50;100.00;98877.31;5042860;28;20293;-78
2023/12/03 10:16:50;;;;;;;17.57;10.67;;;;;;;-2.40;100.00;98873.81;5036997;28;20579;-79
2023/12/03 10:19:22;;;;;;;19.65;12.60;;;;;;;-2.36;100.00;98867.72;5045602;28;20791;-78
2023/12/03 10:21:48;;;;;;;17.43;10.10;;;;;;;-2.37;100.00;98866.00;5054080;28;20241;-79
2023/12/03 10:24:16;;;;;;;15.20;9.87;;;;;;;-2.39;100.00;98865.16;5053828;28;20269;-78
2023/12/03 10:26:50;;;;;;;13.60;8.67;;;;;;;-2.43;100.00;98864.31;5057379;28;20229;-78
2023/12/03 10:29:19;;;;;;;15.70;8.93;;;;;;;-2.39;100.00;98860.00;5057972;28;20214;-78
2023/12/03 10:31:46;;;;;;;15.47;8.73;;;;;;;-2.38;100.00;98853.94;5058283;28;20230;-79
2023/12/03 10:34:12;;;;;;;16.17;9.10;;;;;;;-2.27;100.00;98862.50;5060027;28;20214;-79
2023/12/03 10:36:39;;;;;;;15.50;8.53;;;;;;;-2.32;100.00;98867.69;5062107;28;20221;-79
2023/12/03 10:39:07;;;;;;;16.07;8.80;;;;;;;-2.27;100.00;98870.25;5061875;28;20222;-79
2023/12/03 10:41:35;;;;;;;17.97;9.70;;;;;;;-2.18;100.00;98865.00;5062140;28;20283;-78
2023/12/03 10:44:03;;;;;;;14.53;8.63;;;;;;;-2.18;100.00;98859.81;5061422;28;20223;-79
2023/12/03 10:46:29;;;;;;;14.50;8.67;;;;;;;-2.14;100.00;98862.38;5061911;28;20209;-79
2023/12/03 10:48:56;;;;;;;14.83;9.10;;;;;;;-2.08;100.00;98848.53;5062087;28;20213;-79
2023/12/03 10:51:23;;;;;;;18.40;9.17;;;;;;;-2.12;100.00;98841.66;5062750;28;20598;-79
2023/12/03 10:53:49;;;;;;;17.07;9.23;;;;;;;-2.09;100.00;98845.06;5062899;28;20215;-78
2023/12/03 10:56:17;;;;;;;14.90;8.83;;;;;;;-2.13;100.00;98842.53;5062441;28;20817;-77
2023/12/03 10:58:45;;;;;;;13.87;8.67;;;;;;;-2.16;100.00;98847.72;5061811;28;20211;-78
2023/12/03 11:01:19;;;;;;;15.83;9.30;;;;;;;-2.09;100.00;98839.06;5062706;28;20235;-78
2023/12/03 11:03:56;;;;;;;14.77;8.83;;;;;;;-2.09;100.00;98833.88;5063090;28;20582;-78
2023/12/03 11:06:24;;;;;;;16.10;8.90;;;;;;;-2.12;100.00;98836.47;5064343;28;20263;-78
2023/12/03 11:08:51;;;;;;;15.13;8.97;;;;;;;-2.09;100.00;98841.63;5064093;28;20818;-78
2023/12/03 11:11:19;;;;;;;15.17;9.30;;;;;;;-1.95;100.00;98837.19;5063214;28;20230;-78
2023/12/03 11:13:49;;;;;;;16.23;10.10;;;;;;;-2.01;100.00;98843.28;5064167;28;20277;-78
2023/12/03 11:16:16;;;;;;;15.70;9.17;;;;;;;-1.86;100.00;98842.28;5063876;28;20230;-78
2023/12/03 11:18:48;;;;;;;15.70;8.67;;;;;;;-1.91;100.00;98844.91;5062966;28;20230;-78